sensor_id;sensor_type;location;lat;lon;timestamp;pressure;altitude;pressure_sealevel;temperature;humidity
19112;BME280;9688;51.906;8.376;2023-03-11T00:00:18;99429.47;;;1.57;100.00
19112;BME280;9688;51.906;8.376;2023-03-11T00:03:06;99447.63;;;1.60;100.00
19112;BME280;9688;51.906;8.376;2023-03-11T00:05:52;99446.69;;;1.63;100.00
19112;BME280;9688;51.906;8.376;2023-03-11T00:08:39;99462.31;;;1.64;100.00
19112;BME280;9688;51.906;8.376;2023-03-11T00:11:26;99458.88;;;1.62;100.00
19112;BME280;9688;51.906;8.376;2023-03-11T00:14:12;99477.09;;;1.64;100.00
19112;BME280;9688;51.906;8.376;2023-03-11T00:16:58;99478.06;;;1.58;100.00
19112;BME280;9688;51.906;8.376;2023-03-11T00:19:44;99487.53;;;1.61;100.00
19112;BME280;9688;51.906;8.376;2023-03-11T00:22:33;99481.41;;;1.63;100.00
19112;BME280;9688;51.906;8.376;2023-03-11T00:25:19;99491.91;;;1.60;100.00
19112;BME280;9688;51.906;8.376;2023-03-11T00:28:06;99498.06;;;1.56;100.00
19112;BME280;9688;51.906;8.376;2023-03-11T00:30:53;99504.16;;;1.55;100.00
19112;BME280;9688;51.906;8.376;2023-03-11T00:33:40;99512.78;;;1.57;100.00
19112;BME280;9688;51.906;8.376;2023-03-11T00:36:28;99513.63;;;1.59;100.00
19112;BME280;9688;51.906;8.376;2023-03-11T00:39:16;99520.47;;;1.63;100.00
19112;BME280;9688;51.906;8.376;2023-03-11T00:42:02;99539.53;;;1.67;100.00
19112;BME280;9688;51.906;8.376;2023-03-11T00:44:48;99528.16;;;1.71;100.00
19112;BME280;9688;51.906;8.376;2023-03-11T00:47:34;99534.13;;;1.76;100.00
19112;BME280;9688;51.906;8.376;2023-03-11T00:50:23;99543.69;;;1.75;100.00
19112;BME280;9688;51.906;8.376;2023-03-11T00:53:09;99547.94;;;1.79;100.00
19112;BME280;9688;51.906;8.376;2023-03-11T00:55:56;99560.97;;;1.81;100.00
19112;BME280;9688;51.906;8.376;2023-03-11T00:58:43;99566.16;;;1.81;100.00
19112;BME280;9688;51.906;8.376;2023-03-11T01:01:29;99563.56;;;1.79;100.00
19112;BME280;9688;51.906;8.376;2023-03-11T01:04:15;99564.41;;;1.82;100.00
19112;BME280;9688;51.906;8.376;2023-03-11T01:07:02;99575.69;;;1.82;100.00
19112;BME280;9688;51.906;8.376;2023-03-11T01:09:48;99583.50;;;1.84;100.00
19112;BME280;9688;51.906;8.376;2023-03-11T01:12:33;99593.00;;;1.85;100.00
19112;BME280;9688;51.906;8.376;2023-03-11T01:15:21;99579.97;;;1.86;100.00
19112;BME280;9688;51.906;8.376;2023-03-11T01:18:07;99599.91;;;1.87;100.00
19112;BME280;9688;51.906;8.376;2023-03-11T01:20:53;99601.66;;;1.87;100.00
19112;BME280;9688;51.906;8.376;2023-03-11T01:23:40;99592.09;;;1.86;100.00
19112;BME280;9688;51.906;8.376;2023-03-11T01:26:26;99604.22;;;1.90;100.00
19112;BME280;9688;51.906;8.376;2023-03-11T01:29:12;99602.44;;;1.92;100.00
19112;BME280;9688;51.906;8.376;2023-03-11T01:31:57;99612.00;;;1.91;100.00
19112;BME280;9688;51.906;8.376;2023-03-11T01:34:42;99610.31;;;1.89;100.00
19112;BME280;9688;51.906;8.376;2023-03-11T01:37:28;99616.50;;;1.83;100.00
19112;BME280;9688;51.906;8.376;2023-03-11T01:40:19;99616.50;;;1.83;100.00
19112;BME280;9688;51.906;8.376;2023-03-11T01:46:38;99615.78;;;1.75;100.00
19112;BME280;9688;51.906;8.376;2023-03-11T01:49:43;99617.47;;;1.77;100.00
19112;BME280;9688;51.906;8.376;2023-03-11T01:52:29;99620.09;;;1.76;100.00
19112;BME280;9688;51.906;8.376;2023-03-11T01:55:17;99619.25;;;1.75;100.00
19112;BME280;9688;51.906;8.376;2023-03-11T01:58:06;99621.91;;;1.72;100.00
19112;BME280;9688;51.906;8.376;2023-03-11T02:00:52;99627.97;;;1.73;100.00
19112;BME280;9688;51.906;8.376;2023-03-11T02:03:40;99631.47;;;1.72;100.00
19112;BME280;9688;51.906;8.376;2023-03-11T02:06:25;99635.84;;;1.70;100.00
19112;BME280;9688;51.906;8.376;2023-03-11T02:09:11;99635.75;;;1.74;100.00
19112;BME280;9688;51.906;8.376;2023-03-11T02:11:58;99637.38;;;1.80;100.00
19112;BME280;9688;51.906;8.376;2023-03-11T02:14:46;99646.09;;;1.81;100.00
19112;BME280;9688;51.906;8.376;2023-03-11T02:17:33;99642.59;;;1.80;100.00
19112;BME280;9688;51.906;8.376;2023-03-11T02:20:28;99634.03;;;1.75;100.00
19112;BME280;9688;51.906;8.376;2023-03-11T02:23:20;99641.00;;;1.73;100.00
19112;BME280;9688;51.906;8.376;2023-03-11T02:26:13;99647.97;;;1.71;100.00
19112;BME280;9688;51.906;8.376;2023-03-11T02:29:03;99645.44;;;1.69;100.00
19112;BME280;9688;51.906;8.376;2023-03-11T02:31:50;99657.44;;;1.76;100.00
19112;BME280;9688;51.906;8.376;2023-03-11T02:34:37;99652.22;;;1.78;100.00
19112;BME280;9688;51.906;8.376;2023-03-11T02:37:23;99663.44;;;1.80;100.00
19112;BME280;9688;51.906;8.376;2023-03-11T02:40:31;99660.81;;;1.80;100.00
19112;BME280;9688;51.906;8.376;2023-03-11T02:43:22;99653.84;;;1.82;100.00
19112;BME280;9688;51.906;8.376;2023-03-11T02:46:11;99655.53;;;1.85;100.00
19112;BME280;9688;51.906;8.376;2023-03-11T02:48:58;99659.00;;;1.85;100.00
19112;BME280;9688;51.906;8.376;2023-03-11T02:51:44;99661.66;;;1.84;100.00
19112;BME280;9688;51.906;8.376;2023-03-11T02:54:30;99668.56;;;1.85;100.00
19112;BME280;9688;51.906;8.376;2023-03-11T02:57:15;99670.25;;;1.87;100.00
19112;BME280;9688;51.906;8.376;2023-03-11T03:00:06;99668.63;;;1.83;100.00
19112;BME280;9688;51.906;8.376;2023-03-11T03:02:58;99679.91;;;1.82;100.00
19112;BME280;9688;51.906;8.376;2023-03-11T03:05:44;99680.75;;;1.84;100.00
19112;BME280;9688;51.906;8.376;2023-03-11T03:08:30;99684.25;;;1.82;100.00
19112;BME280;9688;51.906;8.376;2023-03-11T03:11:15;99684.34;;;1.77;100.00
19112;BME280;9688;51.906;8.376;2023-03-11T03:14:01;99691.31;;;1.76;100.00
19112;BME280;9688;51.906;8.376;2023-03-11T03:16:47;99690.44;;;1.76;100.00
19112;BME280;9688;51.906;8.376;2023-03-11T03:19:33;99690.44;;;1.76;100.00
19112;BME280;9688;51.906;8.376;2023-03-11T03:22:19;99708.69;;;1.76;100.00
19112;BME280;9688;51.906;8.376;2023-03-11T03:25:06;99704.31;;;1.78;100.00
19112;BME280;9688;51.906;8.376;2023-03-11T03:27:52;99711.28;;;1.77;100.00
19112;BME280;9688;51.906;8.376;2023-03-11T03:30:38;99711.28;;;1.77;100.00
19112;BME280;9688;51.906;8.376;2023-03-11T03:33:23;99717.28;;;1.79;100.00
19112;BME280;9688;51.906;8.376;2023-03-11T03:36:12;99721.53;;;1.87;100.00
19112;BME280;9688;51.906;8.376;2023-03-11T03:38:57;99725.78;;;1.92;100.00
19112;BME280;9688;51.906;8.376;2023-03-11T03:41:44;99725.72;;;1.94;100.00
19112;BME280;9688;51.906;8.376;2023-03-11T03:44:30;99732.69;;;1.93;100.00
19112;BME280;9688;51.906;8.376;2023-03-11T03:47:15;99730.06;;;1.95;100.00
19112;BME280;9688;51.906;8.376;2023-03-11T03:50:06;99737.00;;;1.96;100.00
19112;BME280;9688;51.906;8.376;2023-03-11T03:52:54;99750.06;;;1.94;100.00
19112;BME280;9688;51.906;8.376;2023-03-11T03:55:39;99748.38;;;1.90;100.00
19112;BME280;9688;51.906;8.376;2023-03-11T03:58:25;99754.50;;;1.89;100.00
19112;BME280;9688;51.906;8.376;2023-03-11T04:01:11;99757.97;;;1.88;100.00
19112;BME280;9688;51.906;8.376;2023-03-11T04:03:57;99760.63;;;1.85;100.00
19112;BME280;9688;51.906;8.376;2023-03-11T04:06:42;99766.75;;;1.83;100.00
19112;BME280;9688;51.906;8.376;2023-03-11T04:09:29;99765.03;;;1.82;100.00
19112;BME280;9688;51.906;8.376;2023-03-11T04:12:15;99764.25;;;1.76;100.00
19112;BME280;9688;51.906;8.376;2023-03-11T04:15:01;99765.16;;;1.74;100.00
19112;BME280;9688;51.906;8.376;2023-03-11T04:17:47;99777.44;;;1.67;100.00
19112;BME280;9688;51.906;8.376;2023-03-11T04:20:32;99775.78;;;1.62;100.00
19112;BME280;9688;51.906;8.376;2023-03-11T04:23:18;99781.94;;;1.56;100.00
19112;BME280;9688;51.906;8.376;2023-03-11T04:26:05;99783.75;;;1.52;100.00
19112;BME280;9688;51.906;8.376;2023-03-11T04:28:50;99791.63;;;1.46;100.00
19112;BME280;9688;51.906;8.376;2023-03-11T04:31:36;99796.03;;;1.43;100.00
19112;BME280;9688;51.906;8.376;2023-03-11T04:34:21;99802.13;;;1.42;100.00
19112;BME280;9688;51.906;8.376;2023-03-11T04:37:06;99806.44;;;1.44;100.00
19112;BME280;9688;51.906;8.376;2023-03-11T04:39:52;99809.00;;;1.46;100.00
19112;BME280;9688;51.906;8.376;2023-03-11T04:42:39;99808.09;;;1.50;100.00
19112;BME280;9688;51.906;8.376;2023-03-11T04:45:25;99811.47;;;1.56;100.00
19112;BME280;9688;51.906;8.376;2023-03-11T04:48:11;99817.41;;;1.65;100.00
19112;BME280;9688;51.906;8.376;2023-03-11T04:50:56;99816.47;;;1.69;100.00
19112;BME280;9688;51.906;8.376;2023-03-11T04:53:42;99821.69;;;1.69;100.00
19112;BME280;9688;51.906;8.376;2023-03-11T04:56:28;99832.16;;;1.66;100.00
19112;BME280;9688;51.906;8.376;2023-03-11T04:59:15;99827.84;;;1.63;100.00
19112;BME280;9688;51.906;8.376;2023-03-11T05:02:00;99833.94;;;1.64;100.00
19112;BME280;9688;51.906;8.376;2023-03-11T05:04:46;99841.72;;;1.65;100.00
19112;BME280;9688;51.906;8.376;2023-03-11T05:07:32;99837.34;;;1.66;100.00
19112;BME280;9688;51.906;8.376;2023-03-11T05:10:18;99840.00;;;1.64;100.00
19112;BME280;9688;51.906;8.376;2023-03-11T05:13:05;99840.91;;;1.62;100.00
19112;BME280;9688;51.906;8.376;2023-03-11T05:15:52;99844.34;;;1.64;100.00
19112;BME280;9688;51.906;8.376;2023-03-11T05:18:38;99838.25;;;1.65;100.00
19112;BME280;9688;51.906;8.376;2023-03-11T05:21:23;99839.16;;;1.64;100.00
19112;BME280;9688;51.906;8.376;2023-03-11T05:24:09;99855.63;;;1.63;100.00
19112;BME280;9688;51.906;8.376;2023-03-11T05:26:55;99858.25;;;1.63;100.00
19112;BME280;9688;51.906;8.376;2023-03-11T05:29:41;99860.81;;;1.66;100.00
19112;BME280;9688;51.906;8.376;2023-03-11T05:32:31;99857.25;;;1.71;100.00
19112;BME280;9688;51.906;8.376;2023-03-11T05:35:17;99856.34;;;1.75;100.00
19112;BME280;9688;51.906;8.376;2023-03-11T05:38:03;99863.25;;;1.76;100.00
19112;BME280;9688;51.906;8.376;2023-03-11T05:40:49;99871.06;;;1.76;100.00
19112;BME280;9688;51.906;8.376;2023-03-11T05:43:34;99866.72;;;1.77;100.00
19112;BME280;9688;51.906;8.376;2023-03-11T05:46:20;99874.53;;;1.78;100.00
19112;BME280;9688;51.906;8.376;2023-03-11T05:49:06;99873.63;;;1.79;100.00
19112;BME280;9688;51.906;8.376;2023-03-11T05:51:52;99883.19;;;1.81;100.00
19112;BME280;9688;51.906;8.376;2023-03-11T05:54:38;99890.25;;;1.72;100.00
19112;BME280;9688;51.906;8.376;2023-03-11T05:57:23;99894.63;;;1.69;100.00
19112;BME280;9688;51.906;8.376;2023-03-11T06:00:10;99892.91;;;1.66;100.00
19112;BME280;9688;51.906;8.376;2023-03-11T06:02:59;99903.41;;;1.62;100.00
19112;BME280;9688;51.906;8.376;2023-03-11T06:05:47;99900.91;;;1.55;100.00
19112;BME280;9688;51.906;8.376;2023-03-11T06:08:33;99906.16;;;1.51;100.00
19112;BME280;9688;51.906;8.376;2023-03-11T06:11:19;99901.84;;;1.47;100.00
19112;BME280;9688;51.906;8.376;2023-03-11T06:14:10;99904.53;;;1.42;100.00
19112;BME280;9688;51.906;8.376;2023-03-11T06:16:57;99910.63;;;1.41;100.00
19112;BME280;9688;51.906;8.376;2023-03-11T06:19:42;99911.53;;;1.37;100.00
19112;BME280;9688;51.906;8.376;2023-03-11T06:22:32;99925.47;;;1.36;100.00
19112;BME280;9688;51.906;8.376;2023-03-11T06:25:20;99920.19;;;1.41;100.00
19112;BME280;9688;51.906;8.376;2023-03-11T06:28:06;99930.50;;;1.47;100.00
19112;BME280;9688;51.906;8.376;2023-03-11T06:30:52;99932.16;;;1.54;100.00
19112;BME280;9688;51.906;8.376;2023-03-11T06:33:40;99928.63;;;1.60;100.00
19112;BME280;9688;51.906;8.376;2023-03-11T06:36:25;99931.97;;;1.68;100.00
19112;BME280;9688;51.906;8.376;2023-03-11T06:39:13;99924.97;;;1.73;100.00
19112;BME280;9688;51.906;8.376;2023-03-11T06:41:59;99938.75;;;1.79;100.00
19112;BME280;9688;51.906;8.376;2023-03-11T06:44:46;99938.66;;;1.87;100.00
19112;BME280;9688;51.906;8.376;2023-03-11T06:47:31;99944.63;;;1.94;100.00
19112;BME280;9688;51.906;8.376;2023-03-11T06:50:17;99948.09;;;1.97;100.00
19112;BME280;9688;51.906;8.376;2023-03-11T06:53:04;99956.66;;;2.06;100.00
19112;BME280;9688;51.906;8.376;2023-03-11T06:55:59;99964.38;;;2.12;100.00
19112;BME280;9688;51.906;8.376;2023-03-11T06:58:45;99964.28;;;2.19;100.00
19112;BME280;9688;51.906;8.376;2023-03-11T07:01:31;99976.38;;;2.25;100.00
19112;BME280;9688;51.906;8.376;2023-03-11T07:04:17;99991.09;;;2.26;100.00
19112;BME280;9688;51.906;8.376;2023-03-11T07:07:02;99991.00;;;2.32;100.00
19112;BME280;9688;51.906;8.376;2023-03-11T07:09:48;99985.69;;;2.40;100.00
19112;BME280;9688;51.906;8.376;2023-03-11T07:12:35;99991.66;;;2.46;100.00
19112;BME280;9688;51.906;8.376;2023-03-11T07:15:21;99998.56;;;2.51;100.00
19112;BME280;9688;51.906;8.376;2023-03-11T07:18:07;99998.53;;;2.52;100.00
19112;BME280;9688;51.906;8.376;2023-03-11T07:20:52;99999.47;;;2.50;100.00
19112;BME280;9688;51.906;8.376;2023-03-11T07:23:38;100011.63;;;2.49;100.00
19112;BME280;9688;51.906;8.376;2023-03-11T07:26:25;100016.81;;;2.51;100.00
19112;BME280;9688;51.906;8.376;2023-03-11T07:29:12;100018.53;;;2.52;100.00
19112;BME280;9688;51.906;8.376;2023-03-11T07:31:57;100034.19;;;2.53;100.00
19112;BME280;9688;51.906;8.376;2023-03-11T07:34:44;100033.28;;;2.56;100.00
19112;BME280;9688;51.906;8.376;2023-03-11T07:37:30;100036.72;;;2.58;100.00
19112;BME280;9688;51.906;8.376;2023-03-11T07:40:16;100039.34;;;2.56;100.00
19112;BME280;9688;51.906;8.376;2023-03-11T07:43:02;100045.41;;;2.57;100.00
19112;BME280;9688;51.906;8.376;2023-03-11T07:45:50;100056.72;;;2.57;100.00
19112;BME280;9688;51.906;8.376;2023-03-11T07:48:37;100061.97;;;2.54;100.00
19112;BME280;9688;51.906;8.376;2023-03-11T07:51:24;100064.47;;;2.62;100.00
19112;BME280;9688;51.906;8.376;2023-03-11T07:54:11;100071.41;;;2.64;100.00
19112;BME280;9688;51.906;8.376;2023-03-11T07:56:56;100076.63;;;2.63;100.00
19112;BME280;9688;51.906;8.376;2023-03-11T07:59:42;100075.72;;;2.65;100.00
19112;BME280;9688;51.906;8.376;2023-03-11T08:02:30;100081.00;;;2.62;100.00
19112;BME280;9688;51.906;8.376;2023-03-11T08:05:17;100097.44;;;2.69;100.00
19112;BME280;9688;51.906;8.376;2023-03-11T08:08:04;100091.13;;;2.82;100.00
19112;BME280;9688;51.906;8.376;2023-03-11T08:10:52;100100.50;;;2.97;100.00
19112;BME280;9688;51.906;8.376;2023-03-11T08:13:38;100103.63;;;3.18;100.00
19112;BME280;9688;51.906;8.376;2023-03-11T08:16:24;100105.88;;;3.38;100.00
19112;BME280;9688;51.906;8.376;2023-03-11T08:19:12;100113.47;;;3.53;100.00
19112;BME280;9688;51.906;8.376;2023-03-11T08:22:00;100110.50;;;3.71;100.00
19112;BME280;9688;51.906;8.376;2023-03-11T08:24:50;100120.69;;;3.87;100.00
19112;BME280;9688;51.906;8.376;2023-03-11T08:27:35;100119.59;;;3.98;100.00
19112;BME280;9688;51.906;8.376;2023-03-11T08:30:23;100116.19;;;3.93;100.00
19112;BME280;9688;51.906;8.376;2023-03-11T08:33:08;100124.84;;;3.97;100.00
19112;BME280;9688;51.906;8.376;2023-03-11T08:35:55;100126.56;;;3.98;100.00
19112;BME280;9688;51.906;8.376;2023-03-11T08:38:41;100138.75;;;3.99;100.00
19112;BME280;9688;51.906;8.376;2023-03-11T08:41:27;100129.25;;;3.93;100.00
19112;BME280;9688;51.906;8.376;2023-03-11T08:44:13;100133.88;;;3.80;100.00
19112;BME280;9688;51.906;8.376;2023-03-11T08:46:59;100134.13;;;3.67;100.00
19112;BME280;9688;51.906;8.376;2023-03-11T08:49:47;100137.63;;;3.66;100.00
19112;BME280;9688;51.906;8.376;2023-03-11T08:52:35;100139.25;;;3.71;100.00
19112;BME280;9688;51.906;8.376;2023-03-11T08:55:21;100138.22;;;3.82;100.00
19112;BME280;9688;51.906;8.376;2023-03-11T08:58:11;100145.13;;;3.86;100.00
19112;BME280;9688;51.906;8.376;2023-03-11T09:00:58;100154.44;;;3.99;100.00
19112;BME280;9688;51.906;8.376;2023-03-11T09:03:47;100159.50;;;4.08;100.00
19112;BME280;9688;51.906;8.376;2023-03-11T09:06:33;100163.69;;;4.17;100.00
19112;BME280;9688;51.906;8.376;2023-03-11T09:09:22;100161.00;;;4.21;100.00
19112;BME280;9688;51.906;8.376;2023-03-11T09:12:09;100158.19;;;4.29;100.00
19112;BME280;9688;51.906;8.376;2023-03-11T09:14:58;100164.97;;;4.39;100.00
19112;BME280;9688;51.906;8.376;2023-03-11T09:17:45;100160.59;;;4.40;100.00
19112;BME280;9688;51.906;8.376;2023-03-11T09:20:38;100164.16;;;4.37;100.00
19112;BME280;9688;51.906;8.376;2023-03-11T09:23:25;100161.59;;;4.34;100.00
19112;BME280;9688;51.906;8.376;2023-03-11T09:26:13;100166.94;;;4.30;100.00
19112;BME280;9688;51.906;8.376;2023-03-11T09:28:59;100168.59;;;4.32;100.00
19112;BME280;9688;51.906;8.376;2023-03-11T09:31:45;100170.28;;;4.36;100.00
19112;BME280;9688;51.906;8.376;2023-03-11T09:34:31;100171.06;;;4.40;100.00
19112;BME280;9688;51.906;8.376;2023-03-11T09:37:17;100167.47;;;4.45;100.00
19112;BME280;9688;51.906;8.376;2023-03-11T09:40:05;100156.97;;;4.47;100.00
19112;BME280;9688;51.906;8.376;2023-03-11T09:43:01;100157.75;;;4.52;100.00
19112;BME280;9688;51.906;8.376;2023-03-11T09:45:54;100159.44;;;4.55;100.00
19112;BME280;9688;51.906;8.376;2023-03-11T09:48:54;100166.25;;;4.62;100.00
19112;BME280;9688;51.906;8.376;2023-03-11T09:51:48;100170.53;;;4.66;100.00
19112;BME280;9688;51.906;8.376;2023-03-11T09:54:39;100170.34;;;4.75;100.00
19112;BME280;9688;51.906;8.376;2023-03-11T09:57:29;100167.56;;;4.83;99.87
19112;BME280;9688;51.906;8.376;2023-03-11T10:00:19;100176.13;;;4.89;99.75
19112;BME280;9688;51.906;8.376;2023-03-11T10:03:19;100179.53;;;4.93;99.36
19112;BME280;9688;51.906;8.376;2023-03-11T10:06:16;100177.47;;;5.07;99.10
19112;BME280;9688;51.906;8.376;2023-03-11T10:09:09;100185.25;;;5.10;98.83
19112;BME280;9688;51.906;8.376;2023-03-11T10:12:12;100186.97;;;5.11;98.00
19112;BME280;9688;51.906;8.376;2023-03-11T10:15:18;100182.66;;;5.10;97.07
19112;BME280;9688;51.906;8.376;2023-03-11T10:18:38;100188.50;;;5.20;97.31
19112;BME280;9688;51.906;8.376;2023-03-11T10:21:36;100191.72;;;5.33;97.12
19112;BME280;9688;51.906;8.376;2023-03-11T10:24:38;100189.84;;;5.38;96.25
19112;BME280;9688;51.906;8.376;2023-03-11T10:27:34;100202.81;;;5.43;96.53
19112;BME280;9688;51.906;8.376;2023-03-11T10:30:29;100204.50;;;5.45;96.19
19112;BME280;9688;51.906;8.376;2023-03-11T10:33:20;100206.03;;;5.55;95.02
19112;BME280;9688;51.906;8.376;2023-03-11T10:36:12;100212.03;;;5.59;94.15
19112;BME280;9688;51.906;8.376;2023-03-11T10:39:01;100213.72;;;5.62;94.46
19112;BME280;9688;51.906;8.376;2023-03-11T10:41:51;100218.97;;;5.62;94.54
19112;BME280;9688;51.906;8.376;2023-03-11T10:44:40;100210.22;;;5.63;93.46
19112;BME280;9688;51.906;8.376;2023-03-11T10:47:28;100221.34;;;5.72;93.91
19112;BME280;9688;51.906;8.376;2023-03-11T10:50:16;100227.16;;;5.85;92.79
19112;BME280;9688;51.906;8.376;2023-03-11T10:53:07;100221.75;;;5.91;92.52
19112;BME280;9688;51.906;8.376;2023-03-11T10:55:55;100222.34;;;6.02;92.09
19112;BME280;9688;51.906;8.376;2023-03-11T10:58:47;100219.72;;;6.02;91.54
19112;BME280;9688;51.906;8.376;2023-03-11T11:01:37;100216.00;;;6.11;91.27
19112;BME280;9688;51.906;8.376;2023-03-11T11:04:37;100218.50;;;6.16;90.22
19112;BME280;9688;51.906;8.376;2023-03-11T11:07:29;100234.03;;;6.23;90.76
19112;BME280;9688;51.906;8.376;2023-03-11T11:10:22;100223.50;;;6.25;89.93
19112;BME280;9688;51.906;8.376;2023-03-11T11:13:17;100230.63;;;6.20;89.70
19112;BME280;9688;51.906;8.376;2023-03-11T11:16:05;100227.16;;;6.19;90.45
19112;BME280;9688;51.906;8.376;2023-03-11T11:19:07;100226.13;;;6.25;89.74
19112;BME280;9688;51.906;8.376;2023-03-11T11:22:02;100222.28;;;6.37;89.78
19112;BME280;9688;51.906;8.376;2023-03-11T11:24:52;100219.34;;;6.49;89.54
19112;BME280;9688;51.906;8.376;2023-03-11T11:27:37;100214.75;;;6.56;88.62
19112;BME280;9688;51.906;8.376;2023-03-11T11:30:51;100234.28;;;6.47;88.63
19112;BME280;9688;51.906;8.376;2023-03-11T11:33:39;100233.22;;;6.54;89.15
19112;BME280;9688;51.906;8.376;2023-03-11T11:36:38;100222.06;;;6.76;88.81
19112;BME280;9688;51.906;8.376;2023-03-11T11:39:31;100223.41;;;6.90;88.58
19112;BME280;9688;51.906;8.376;2023-03-11T11:42:23;100218.94;;;6.92;87.84
19112;BME280;9688;51.906;8.376;2023-03-11T11:45:14;100226.53;;;6.74;86.89
19112;BME280;9688;51.906;8.376;2023-03-11T11:48:06;100217.31;;;6.59;86.85
19112;BME280;9688;51.906;8.376;2023-03-11T11:50:59;100209.09;;;6.71;86.54
19112;BME280;9688;51.906;8.376;2023-03-11T11:53:50;100213.28;;;6.77;85.85
19112;BME280;9688;51.906;8.376;2023-03-11T11:56:42;100214.50;;;6.65;85.91
19112;BME280;9688;51.906;8.376;2023-03-11T11:59:29;100222.72;;;6.54;87.06
19112;BME280;9688;51.906;8.376;2023-03-11T12:02:30;100216.94;;;6.41;85.73
19112;BME280;9688;51.906;8.376;2023-03-11T12:05:24;100224.91;;;6.37;85.59
19112;BME280;9688;51.906;8.376;2023-03-11T12:08:17;100216.56;;;6.54;85.69
19112;BME280;9688;51.906;8.376;2023-03-11T12:11:09;100213.03;;;6.84;85.13
19112;BME280;9688;51.906;8.376;2023-03-11T12:14:08;100216.09;;;7.00;84.40
19112;BME280;9688;51.906;8.376;2023-03-11T12:16:59;100208.94;;;7.05;84.13
19112;BME280;9688;51.906;8.376;2023-03-11T12:19:50;100208.00;;;7.06;83.94
19112;BME280;9688;51.906;8.376;2023-03-11T12:23:05;100207.88;;;7.11;84.15
19112;BME280;9688;51.906;8.376;2023-03-11T12:26:13;100205.78;;;7.22;83.72
19112;BME280;9688;51.906;8.376;2023-03-11T12:29:05;100212.16;;;7.15;84.10
19112;BME280;9688;51.906;8.376;2023-03-11T12:31:53;100211.00;;;6.96;84.87
19112;BME280;9688;51.906;8.376;2023-03-11T12:34:40;100213.84;;;6.88;84.73
19112;BME280;9688;51.906;8.376;2023-03-11T12:37:27;100213.94;;;6.85;85.17
19112;BME280;9688;51.906;8.376;2023-03-11T12:44:04;100214.31;;;7.01;85.13
19112;BME280;9688;51.906;8.376;2023-03-11T12:47:18;100213.25;;;7.06;84.56
19112;BME280;9688;51.906;8.376;2023-03-11T12:50:37;100211.75;;;6.99;84.49
19112;BME280;9688;51.906;8.376;2023-03-11T12:53:41;100214.59;;;6.91;84.79
19112;BME280;9688;51.906;8.376;2023-03-11T12:56:32;100207.88;;;6.81;84.79
19112;BME280;9688;51.906;8.376;2023-03-11T12:59:48;100201.84;;;6.79;84.57
19112;BME280;9688;51.906;8.376;2023-03-11T13:06:00;100214.22;;;7.04;83.71
19112;BME280;9688;51.906;8.376;2023-03-11T13:08:51;100215.97;;;7.03;83.70
19112;BME280;9688;51.906;8.376;2023-03-11T13:11:44;100213.97;;;7.11;83.11
19112;BME280;9688;51.906;8.376;2023-03-11T13:14:35;100221.50;;;7.24;82.80
19112;BME280;9688;51.906;8.376;2023-03-11T13:17:24;100226.59;;;7.28;82.45
19112;BME280;9688;51.906;8.376;2023-03-11T13:20:41;100224.78;;;7.30;82.57
19112;BME280;9688;51.906;8.376;2023-03-11T13:23:34;100220.25;;;7.35;82.63
19112;BME280;9688;51.906;8.376;2023-03-11T13:26:29;100229.50;;;7.47;82.49
19112;BME280;9688;51.906;8.376;2023-03-11T13:29:47;100234.22;;;7.64;82.17
19112;BME280;9688;51.906;8.376;2023-03-11T13:32:59;100235.88;;;7.68;81.65
19112;BME280;9688;51.906;8.376;2023-03-11T13:36:01;100241.47;;;7.57;81.50
19112;BME280;9688;51.906;8.376;2023-03-11T13:39:24;100249.81;;;7.44;81.47
19112;BME280;9688;51.906;8.376;2023-03-11T13:42:20;100240.38;;;7.36;81.64
19112;BME280;9688;51.906;8.376;2023-03-11T13:45:24;100244.25;;;7.53;81.11
19112;BME280;9688;51.906;8.376;2023-03-11T13:48:14;100237.66;;;7.68;80.77
19112;BME280;9688;51.906;8.376;2023-03-11T13:51:04;100245.38;;;7.72;80.50
19112;BME280;9688;51.906;8.376;2023-03-11T13:53:57;100247.72;;;7.81;80.61
19112;BME280;9688;51.906;8.376;2023-03-11T13:56:45;100251.97;;;7.84;80.48
19112;BME280;9688;51.906;8.376;2023-03-11T13:59:34;100251.09;;;7.85;80.89
19112;BME280;9688;51.906;8.376;2023-03-11T14:02:23;100245.25;;;7.75;80.30
19112;BME280;9688;51.906;8.376;2023-03-11T14:05:14;100244.31;;;7.78;79.69
19112;BME280;9688;51.906;8.376;2023-03-11T14:08:20;100245.84;;;7.85;79.55
19112;BME280;9688;51.906;8.376;2023-03-11T14:11:15;100246.13;;;8.02;78.97
19112;BME280;9688;51.906;8.376;2023-03-11T14:14:01;100236.06;;;8.14;79.47
19112;BME280;9688;51.906;8.376;2023-03-11T14:16:48;100248.41;;;8.12;78.12
19112;BME280;9688;51.906;8.376;2023-03-11T14:19:35;100259.41;;;7.98;78.41
19112;BME280;9688;51.906;8.376;2023-03-11T14:22:21;100252.66;;;7.91;79.01
19112;BME280;9688;51.906;8.376;2023-03-11T14:25:09;100251.38;;;7.76;79.24
19112;BME280;9688;51.906;8.376;2023-03-11T14:28:01;100256.19;;;7.63;79.07
19112;BME280;9688;51.906;8.376;2023-03-11T14:30:55;100262.72;;;7.51;78.87
19112;BME280;9688;51.906;8.376;2023-03-11T14:33:42;100262.34;;;7.34;79.07
19112;BME280;9688;51.906;8.376;2023-03-11T14:36:29;100265.91;;;7.33;78.55
19112;BME280;9688;51.906;8.376;2023-03-11T14:39:27;100260.44;;;7.39;77.05
19112;BME280;9688;51.906;8.376;2023-03-11T14:42:20;100260.84;;;7.55;77.55
19112;BME280;9688;51.906;8.376;2023-03-11T14:45:14;100255.47;;;7.58;77.68
19112;BME280;9688;51.906;8.376;2023-03-11T14:48:08;100266.53;;;7.41;77.83
19112;BME280;9688;51.906;8.376;2023-03-11T14:50:59;100268.72;;;7.27;78.31
19112;BME280;9688;51.906;8.376;2023-03-11T14:53:57;100277.59;;;7.23;78.14
19112;BME280;9688;51.906;8.376;2023-03-11T14:56:58;100271.56;;;7.21;77.74
19112;BME280;9688;51.906;8.376;2023-03-11T14:59:48;100273.69;;;7.08;78.05
19112;BME280;9688;51.906;8.376;2023-03-11T15:02:43;100272.53;;;7.17;77.23
19112;BME280;9688;51.906;8.376;2023-03-11T15:05:41;100270.53;;;7.25;76.94
19112;BME280;9688;51.906;8.376;2023-03-11T15:08:31;100270.72;;;7.19;77.92
19112;BME280;9688;51.906;8.376;2023-03-11T15:11:22;100269.06;;;7.16;77.71
19112;BME280;9688;51.906;8.376;2023-03-11T15:14:16;100277.03;;;7.13;77.77
19112;BME280;9688;51.906;8.376;2023-03-11T15:17:15;100264.97;;;7.06;78.08
19112;BME280;9688;51.906;8.376;2023-03-11T15:20:22;100267.81;;;6.98;78.42